KPAE/PAE METAR and TAF weather

Enter ICAO airport designator
Station Type Date Time Source
KPAE METAR 2019/08/21 21:53 UTC NOAA

KPAE 212153Z 17007KT 10SM OVC017 18/14 A2999 RMK AO2 SLP152 T01830139


Station Type Date Time Source
KPAE Decoded METAR 2019/08/21 21:53 UTC NOAA

Station name not available
Aug 21, 2019 - 05:53 PM EDT / 2019.08.21 2153 UTC
Wind: from the S (170 degrees) at 8 MPH (7 KT):0
Visibility: 10 mile(s):0
Sky conditions: overcast
Temperature: 64.9 F (18.3 C)
Dew Point: 57.0 F (13.9 C)
Relative Humidity: 75%
Pressure (altimeter): 29.99 in. Hg (1015 hPa)
ob: KPAE 212153Z 17007KT 10SM OVC017 18/14 A2999 RMK AO2 SLP152 T01830139
cycle: 22

Station Type Date Time Source
KPAE TAF 2019/08/21 18:36 UTC NOAA

TAF KPAE 211733Z 2118/2218 16012G21KT P6SM -RA SCT007 OVC050
TEMPO 2118/2120 BKN007
FM212200 18011KT P6SM -SHRA BKN020 OVC040
FM220100 36004KT P6SM -SHRA OVC020
FM221100 36003KT 5SM -DZ BR OVC007
FM221700 VRB03KT P6SM OVC010

Example: see airport list